sensor_id;sensor_type;location;lat;lon;timestamp;P1;durP1;ratioP1;P2;durP2;ratioP2
75649;SDS011;64245;51.282;22.494;2023-03-05T00:01:03;8.52;;;2.28;;
75649;SDS011;64245;51.282;22.494;2023-03-05T00:03:32;7.57;;;2.55;;
75649;SDS011;64245;51.282;22.494;2023-03-05T00:05:58;7.72;;;2.20;;
75649;SDS011;64245;51.282;22.494;2023-03-05T00:08:24;5.25;;;1.63;;
75649;SDS011;64245;51.282;22.494;2023-03-05T00:10:56;7.05;;;2.13;;
75649;SDS011;64245;51.282;22.494;2023-03-05T00:13:26;6.32;;;1.17;;
75649;SDS011;64245;51.282;22.494;2023-03-05T00:15:52;3.22;;;1.85;;
75649;SDS011;64245;51.282;22.494;2023-03-05T00:18:18;5.47;;;2.00;;
75649;SDS011;64245;51.282;22.494;2023-03-05T00:20:44;6.45;;;1.77;;
75649;SDS011;64245;51.282;22.494;2023-03-05T00:23:11;4.10;;;1.23;;
75649;SDS011;64245;51.282;22.494;2023-03-05T00:25:36;5.80;;;1.70;;
75649;SDS011;64245;51.282;22.494;2023-03-05T00:28:02;3.50;;;1.45;;
75649;SDS011;64245;51.282;22.494;2023-03-05T00:30:28;8.27;;;2.10;;
75649;SDS011;64245;51.282;22.494;2023-03-05T00:32:55;6.82;;;1.73;;
75649;SDS011;64245;51.282;22.494;2023-03-05T00:35:20;5.20;;;2.03;;
75649;SDS011;64245;51.282;22.494;2023-03-05T00:37:46;5.72;;;2.15;;
75649;SDS011;64245;51.282;22.494;2023-03-05T00:40:12;7.30;;;1.83;;
75649;SDS011;64245;51.282;22.494;2023-03-05T00:42:37;5.55;;;2.15;;
75649;SDS011;64245;51.282;22.494;2023-03-05T00:45:03;3.80;;;1.40;;
75649;SDS011;64245;51.282;22.494;2023-03-05T00:47:30;5.03;;;1.73;;
75649;SDS011;64245;51.282;22.494;2023-03-05T00:49:56;4.30;;;1.45;;
75649;SDS011;64245;51.282;22.494;2023-03-05T00:52:22;4.35;;;1.27;;
75649;SDS011;64245;51.282;22.494;2023-03-05T00:54:47;3.22;;;1.08;;
75649;SDS011;64245;51.282;22.494;2023-03-05T00:57:13;5.82;;;2.03;;
75649;SDS011;64245;51.282;22.494;2023-03-05T00:59:38;6.22;;;1.50;;
75649;SDS011;64245;51.282;22.494;2023-03-05T01:02:04;3.33;;;1.08;;
75649;SDS011;64245;51.282;22.494;2023-03-05T01:04:30;7.20;;;1.35;;
75649;SDS011;64245;51.282;22.494;2023-03-05T01:06:56;3.40;;;1.38;;
75649;SDS011;64245;51.282;22.494;2023-03-05T01:09:21;2.38;;;1.08;;
75649;SDS011;64245;51.282;22.494;2023-03-05T01:11:50;4.47;;;1.50;;
75649;SDS011;64245;51.282;22.494;2023-03-05T01:14:16;5.60;;;1.17;;
75649;SDS011;64245;51.282;22.494;2023-03-05T01:16:42;6.63;;;1.60;;
75649;SDS011;64245;51.282;22.494;2023-03-05T01:19:07;2.90;;;1.38;;
75649;SDS011;64245;51.282;22.494;2023-03-05T01:21:34;3.88;;;1.30;;
75649;SDS011;64245;51.282;22.494;2023-03-05T01:24:00;5.95;;;1.40;;
75649;SDS011;64245;51.282;22.494;2023-03-05T01:26:26;2.90;;;1.10;;
75649;SDS011;64245;51.282;22.494;2023-03-05T01:28:52;2.13;;;0.95;;
75649;SDS011;64245;51.282;22.494;2023-03-05T01:31:18;2.55;;;1.20;;
75649;SDS011;64245;51.282;22.494;2023-03-05T01:33:44;3.78;;;1.35;;
75649;SDS011;64245;51.282;22.494;2023-03-05T01:36:10;1.27;;;0.65;;
75649;SDS011;64245;51.282;22.494;2023-03-05T01:41:05;0.00;;;0.00;;
75649;SDS011;64245;51.282;22.494;2023-03-05T01:43:31;1.98;;;0.52;;
75649;SDS011;64245;51.282;22.494;2023-03-05T01:48:58;1.98;;;0.75;;
75649;SDS011;64245;51.282;22.494;2023-03-05T01:51:31;1.20;;;0.70;;
75649;SDS011;64245;51.282;22.494;2023-03-05T01:54:02;2.78;;;1.38;;
75649;SDS011;64245;51.282;22.494;2023-03-05T01:56:31;5.90;;;1.20;;
75649;SDS011;64245;51.282;22.494;2023-03-05T01:58:58;2.47;;;1.20;;
75649;SDS011;64245;51.282;22.494;2023-03-05T02:01:29;2.92;;;1.00;;
75649;SDS011;64245;51.282;22.494;2023-03-05T02:04:04;3.40;;;0.98;;
75649;SDS011;64245;51.282;22.494;2023-03-05T02:06:32;2.30;;;0.88;;
75649;SDS011;64245;51.282;22.494;2023-03-05T02:08:58;3.95;;;0.77;;
75649;SDS011;64245;51.282;22.494;2023-03-05T02:11:24;1.08;;;0.60;;
75649;SDS011;64245;51.282;22.494;2023-03-05T02:13:49;2.58;;;0.70;;
75649;SDS011;64245;51.282;22.494;2023-03-05T02:16:15;3.00;;;0.52;;
75649;SDS011;64245;51.282;22.494;2023-03-05T02:18:41;2.65;;;0.95;;
75649;SDS011;64245;51.282;22.494;2023-03-05T02:21:07;1.55;;;0.60;;
75649;SDS011;64245;51.282;22.494;2023-03-05T02:23:34;2.70;;;1.00;;
75649;SDS011;64245;51.282;22.494;2023-03-05T02:26:02;1.30;;;0.52;;
75649;SDS011;64245;51.282;22.494;2023-03-05T02:28:30;2.90;;;1.02;;
75649;SDS011;64245;51.282;22.494;2023-03-05T02:31:01;2.55;;;0.82;;
75649;SDS011;64245;51.282;22.494;2023-03-05T02:33:31;4.38;;;1.42;;
75649;SDS011;64245;51.282;22.494;2023-03-05T02:35:57;3.55;;;1.40;;
75649;SDS011;64245;51.282;22.494;2023-03-05T02:38:22;1.80;;;0.95;;
75649;SDS011;64245;51.282;22.494;2023-03-05T02:40:48;4.20;;;0.90;;
75649;SDS011;64245;51.282;22.494;2023-03-05T02:43:14;0.98;;;0.65;;
75649;SDS011;64245;51.282;22.494;2023-03-05T02:45:39;3.15;;;0.90;;
75649;SDS011;64245;51.282;22.494;2023-03-05T02:48:05;6.40;;;1.48;;
75649;SDS011;64245;51.282;22.494;2023-03-05T02:50:31;3.60;;;1.05;;
75649;SDS011;64245;51.282;22.494;2023-03-05T02:52:58;1.85;;;0.80;;
75649;SDS011;64245;51.282;22.494;2023-03-05T02:55:24;3.33;;;1.38;;
75649;SDS011;64245;51.282;22.494;2023-03-05T02:57:49;4.85;;;1.50;;
75649;SDS011;64245;51.282;22.494;2023-03-05T03:00:15;3.03;;;0.88;;
75649;SDS011;64245;51.282;22.494;2023-03-05T03:02:41;5.20;;;1.58;;
75649;SDS011;64245;51.282;22.494;2023-03-05T03:05:07;2.13;;;0.85;;
75649;SDS011;64245;51.282;22.494;2023-03-05T03:07:33;1.70;;;0.88;;
75649;SDS011;64245;51.282;22.494;2023-03-05T03:10:01;5.75;;;1.52;;
75649;SDS011;64245;51.282;22.494;2023-03-05T03:12:27;3.15;;;1.15;;
75649;SDS011;64245;51.282;22.494;2023-03-05T03:14:53;3.28;;;1.52;;
75649;SDS011;64245;51.282;22.494;2023-03-05T03:17:18;2.63;;;1.25;;
75649;SDS011;64245;51.282;22.494;2023-03-05T03:19:44;5.70;;;1.38;;
75649;SDS011;64245;51.282;22.494;2023-03-05T03:22:11;6.20;;;1.25;;
75649;SDS011;64245;51.282;22.494;2023-03-05T03:24:39;2.75;;;1.45;;
75649;SDS011;64245;51.282;22.494;2023-03-05T03:27:06;5.22;;;1.42;;
75649;SDS011;64245;51.282;22.494;2023-03-05T03:29:32;7.30;;;2.13;;
75649;SDS011;64245;51.282;22.494;2023-03-05T03:31:58;4.22;;;2.10;;
75649;SDS011;64245;51.282;22.494;2023-03-05T03:34:24;6.03;;;1.95;;
75649;SDS011;64245;51.282;22.494;2023-03-05T03:36:51;7.57;;;2.42;;
75649;SDS011;64245;51.282;22.494;2023-03-05T03:39:20;4.07;;;2.20;;
75649;SDS011;64245;51.282;22.494;2023-03-05T03:41:47;9.48;;;2.60;;
75649;SDS011;64245;51.282;22.494;2023-03-05T03:44:15;5.82;;;1.80;;
75649;SDS011;64245;51.282;22.494;2023-03-05T03:46:42;6.00;;;1.73;;
75649;SDS011;64245;51.282;22.494;2023-03-05T03:49:21;2.13;;;1.27;;
75649;SDS011;64245;51.282;22.494;2023-03-05T03:51:49;4.13;;;1.63;;
75649;SDS011;64245;51.282;22.494;2023-03-05T03:54:16;3.90;;;0.80;;
75649;SDS011;64245;51.282;22.494;2023-03-05T03:56:42;5.05;;;1.63;;
75649;SDS011;64245;51.282;22.494;2023-03-05T03:59:08;2.83;;;1.40;;
75649;SDS011;64245;51.282;22.494;2023-03-05T04:01:34;0.88;;;0.75;;
75649;SDS011;64245;51.282;22.494;2023-03-05T04:04:00;4.80;;;1.50;;
75649;SDS011;64245;51.282;22.494;2023-03-05T04:06:26;2.88;;;1.20;;
75649;SDS011;64245;51.282;22.494;2023-03-05T04:08:52;3.75;;;1.17;;
75649;SDS011;64245;51.282;22.494;2023-03-05T04:11:18;0.40;;;0.35;;
75649;SDS011;64245;51.282;22.494;2023-03-05T04:13:47;3.35;;;1.55;;
75649;SDS011;64245;51.282;22.494;2023-03-05T04:16:13;2.35;;;0.77;;
75649;SDS011;64245;51.282;22.494;2023-03-05T04:18:40;2.88;;;1.17;;
75649;SDS011;64245;51.282;22.494;2023-03-05T04:21:06;2.88;;;1.23;;
75649;SDS011;64245;51.282;22.494;2023-03-05T04:23:32;2.17;;;0.93;;
75649;SDS011;64245;51.282;22.494;2023-03-05T04:25:58;3.75;;;1.35;;
75649;SDS011;64245;51.282;22.494;2023-03-05T04:28:24;4.60;;;1.73;;
75649;SDS011;64245;51.282;22.494;2023-03-05T04:30:50;4.07;;;1.13;;
75649;SDS011;64245;51.282;22.494;2023-03-05T04:33:16;4.80;;;1.30;;
75649;SDS011;64245;51.282;22.494;2023-03-05T04:35:41;5.07;;;1.25;;
75649;SDS011;64245;51.282;22.494;2023-03-05T04:38:08;3.95;;;1.23;;
75649;SDS011;64245;51.282;22.494;2023-03-05T04:40:33;4.03;;;1.00;;
75649;SDS011;64245;51.282;22.494;2023-03-05T04:43:00;9.23;;;1.02;;
75649;SDS011;64245;51.282;22.494;2023-03-05T04:45:25;2.83;;;0.85;;
75649;SDS011;64245;51.282;22.494;2023-03-05T04:47:51;5.07;;;1.50;;
75649;SDS011;64245;51.282;22.494;2023-03-05T04:50:17;4.85;;;1.27;;
75649;SDS011;64245;51.282;22.494;2023-03-05T04:52:43;6.85;;;1.98;;
75649;SDS011;64245;51.282;22.494;2023-03-05T04:55:10;3.13;;;1.27;;
75649;SDS011;64245;51.282;22.494;2023-03-05T04:57:37;6.55;;;1.25;;
75649;SDS011;64245;51.282;22.494;2023-03-05T05:00:03;1.63;;;0.57;;
75649;SDS011;64245;51.282;22.494;2023-03-05T05:02:31;6.38;;;1.98;;
75649;SDS011;64245;51.282;22.494;2023-03-05T05:04:57;4.18;;;1.38;;
75649;SDS011;64245;51.282;22.494;2023-03-05T05:07:23;4.10;;;1.00;;
75649;SDS011;64245;51.282;22.494;2023-03-05T05:09:49;1.58;;;0.80;;
75649;SDS011;64245;51.282;22.494;2023-03-05T05:12:15;2.72;;;0.63;;
75649;SDS011;64245;51.282;22.494;2023-03-05T05:14:40;4.25;;;1.50;;
75649;SDS011;64245;51.282;22.494;2023-03-05T05:17:06;3.15;;;1.27;;
75649;SDS011;64245;51.282;22.494;2023-03-05T05:19:35;2.80;;;1.27;;
75649;SDS011;64245;51.282;22.494;2023-03-05T05:22:00;2.03;;;0.80;;
75649;SDS011;64245;51.282;22.494;2023-03-05T05:24:26;5.00;;;1.10;;
75649;SDS011;64245;51.282;22.494;2023-03-05T05:26:55;2.83;;;1.50;;
75649;SDS011;64245;51.282;22.494;2023-03-05T05:29:20;2.20;;;0.63;;
75649;SDS011;64245;51.282;22.494;2023-03-05T05:31:46;2.88;;;0.90;;
75649;SDS011;64245;51.282;22.494;2023-03-05T05:34:12;3.13;;;1.30;;
75649;SDS011;64245;51.282;22.494;2023-03-05T05:36:38;4.45;;;1.92;;
75649;SDS011;64245;51.282;22.494;2023-03-05T05:39:03;4.78;;;1.58;;
75649;SDS011;64245;51.282;22.494;2023-03-05T05:41:29;6.60;;;1.92;;
75649;SDS011;64245;51.282;22.494;2023-03-05T05:43:55;8.13;;;2.20;;
75649;SDS011;64245;51.282;22.494;2023-03-05T05:46:21;3.90;;;1.70;;
75649;SDS011;64245;51.282;22.494;2023-03-05T05:48:47;1.52;;;1.02;;
75649;SDS011;64245;51.282;22.494;2023-03-05T05:51:14;4.05;;;1.00;;
75649;SDS011;64245;51.282;22.494;2023-03-05T05:53:41;5.82;;;1.33;;
75649;SDS011;64245;51.282;22.494;2023-03-05T05:56:08;2.22;;;0.17;;
75649;SDS011;64245;51.282;22.494;2023-03-05T05:58:36;1.58;;;1.00;;
75649;SDS011;64245;51.282;22.494;2023-03-05T06:01:10;4.13;;;1.23;;
75649;SDS011;64245;51.282;22.494;2023-03-05T06:03:37;4.95;;;1.90;;
75649;SDS011;64245;51.282;22.494;2023-03-05T06:06:04;2.75;;;1.15;;
75649;SDS011;64245;51.282;22.494;2023-03-05T06:08:33;6.38;;;1.73;;
75649;SDS011;64245;51.282;22.494;2023-03-05T06:10:58;4.70;;;2.25;;
75649;SDS011;64245;51.282;22.494;2023-03-05T06:13:24;2.58;;;0.80;;
75649;SDS011;64245;51.282;22.494;2023-03-05T06:15:56;4.53;;;1.58;;
75649;SDS011;64245;51.282;22.494;2023-03-05T06:18:22;2.72;;;0.75;;
75649;SDS011;64245;51.282;22.494;2023-03-05T06:20:58;5.40;;;2.33;;
75649;SDS011;64245;51.282;22.494;2023-03-05T06:23:25;4.78;;;1.20;;
75649;SDS011;64245;51.282;22.494;2023-03-05T06:25:51;4.35;;;1.63;;
75649;SDS011;64245;51.282;22.494;2023-03-05T06:28:17;2.88;;;1.45;;
75649;SDS011;64245;51.282;22.494;2023-03-05T06:30:43;7.78;;;2.42;;
75649;SDS011;64245;51.282;22.494;2023-03-05T06:33:09;9.90;;;1.95;;
75649;SDS011;64245;51.282;22.494;2023-03-05T06:35:36;6.15;;;2.55;;
75649;SDS011;64245;51.282;22.494;2023-03-05T06:38:03;6.53;;;2.38;;
75649;SDS011;64245;51.282;22.494;2023-03-05T06:40:29;6.10;;;2.05;;
75649;SDS011;64245;51.282;22.494;2023-03-05T06:42:55;3.92;;;1.33;;
75649;SDS011;64245;51.282;22.494;2023-03-05T06:45:21;5.65;;;2.22;;
75649;SDS011;64245;51.282;22.494;2023-03-05T06:47:46;4.95;;;1.65;;
75649;SDS011;64245;51.282;22.494;2023-03-05T06:50:12;3.65;;;1.55;;
75649;SDS011;64245;51.282;22.494;2023-03-05T06:52:38;7.43;;;2.15;;
75649;SDS011;64245;51.282;22.494;2023-03-05T06:55:05;2.90;;;1.65;;
75649;SDS011;64245;51.282;22.494;2023-03-05T06:57:32;5.07;;;2.00;;
75649;SDS011;64245;51.282;22.494;2023-03-05T06:59:57;3.63;;;1.33;;
75649;SDS011;64245;51.282;22.494;2023-03-05T07:02:23;2.17;;;1.05;;
75649;SDS011;64245;51.282;22.494;2023-03-05T07:04:49;2.17;;;1.02;;
75649;SDS011;64245;51.282;22.494;2023-03-05T07:07:15;3.90;;;1.77;;
75649;SDS011;64245;51.282;22.494;2023-03-05T07:09:40;7.70;;;2.22;;
75649;SDS011;64245;51.282;22.494;2023-03-05T07:12:09;4.25;;;1.52;;
75649;SDS011;64245;51.282;22.494;2023-03-05T07:14:36;0.98;;;0.77;;
75649;SDS011;64245;51.282;22.494;2023-03-05T07:17:04;3.92;;;2.00;;
75649;SDS011;64245;51.282;22.494;2023-03-05T07:19:31;5.15;;;1.70;;
75649;SDS011;64245;51.282;22.494;2023-03-05T07:21:57;4.28;;;1.42;;
75649;SDS011;64245;51.282;22.494;2023-03-05T07:24:22;2.42;;;1.08;;
75649;SDS011;64245;51.282;22.494;2023-03-05T07:26:53;2.25;;;1.10;;
75649;SDS011;64245;51.282;22.494;2023-03-05T07:29:18;3.00;;;1.13;;
75649;SDS011;64245;51.282;22.494;2023-03-05T07:31:44;4.45;;;1.60;;
75649;SDS011;64245;51.282;22.494;2023-03-05T07:34:10;2.40;;;1.15;;
75649;SDS011;64245;51.282;22.494;2023-03-05T07:36:35;2.38;;;1.27;;
75649;SDS011;64245;51.282;22.494;2023-03-05T07:39:02;5.38;;;1.85;;
75649;SDS011;64245;51.282;22.494;2023-03-05T07:41:29;2.50;;;1.52;;
75649;SDS011;64245;51.282;22.494;2023-03-05T07:43:55;3.67;;;1.35;;
75649;SDS011;64245;51.282;22.494;2023-03-05T07:46:22;3.92;;;1.73;;
75649;SDS011;64245;51.282;22.494;2023-03-05T07:48:50;3.60;;;1.58;;
75649;SDS011;64245;51.282;22.494;2023-03-05T07:51:19;1.42;;;1.05;;
75649;SDS011;64245;51.282;22.494;2023-03-05T07:53:46;2.47;;;1.58;;
75649;SDS011;64245;51.282;22.494;2023-03-05T07:56:13;4.05;;;1.60;;
75649;SDS011;64245;51.282;22.494;2023-03-05T07:58:45;2.53;;;1.92;;
75649;SDS011;64245;51.282;22.494;2023-03-05T08:01:11;8.15;;;1.60;;
75649;SDS011;64245;51.282;22.494;2023-03-05T08:03:39;2.70;;;1.35;;
75649;SDS011;64245;51.282;22.494;2023-03-05T08:06:05;1.55;;;0.85;;
75649;SDS011;64245;51.282;22.494;2023-03-05T08:08:32;4.85;;;1.48;;
75649;SDS011;64245;51.282;22.494;2023-03-05T08:11:08;6.15;;;1.15;;
75649;SDS011;64245;51.282;22.494;2023-03-05T08:13:36;2.83;;;1.15;;
75649;SDS011;64245;51.282;22.494;2023-03-05T08:16:03;7.10;;;1.38;;
75649;SDS011;64245;51.282;22.494;2023-03-05T08:18:33;5.50;;;1.45;;
75649;SDS011;64245;51.282;22.494;2023-03-05T08:20:58;2.42;;;1.00;;
75649;SDS011;64245;51.282;22.494;2023-03-05T08:23:25;2.03;;;0.98;;
75649;SDS011;64245;51.282;22.494;2023-03-05T08:25:51;3.85;;;1.25;;
75649;SDS011;64245;51.282;22.494;2023-03-05T08:28:17;2.30;;;0.82;;
75649;SDS011;64245;51.282;22.494;2023-03-05T08:30:44;3.45;;;1.63;;
75649;SDS011;64245;51.282;22.494;2023-03-05T08:33:11;0.93;;;0.40;;
75649;SDS011;64245;51.282;22.494;2023-03-05T08:35:38;1.88;;;0.77;;
75649;SDS011;64245;51.282;22.494;2023-03-05T08:38:04;3.72;;;1.15;;
75649;SDS011;64245;51.282;22.494;2023-03-05T08:40:29;1.58;;;0.60;;
75649;SDS011;64245;51.282;22.494;2023-03-05T08:42:56;1.58;;;0.77;;
75649;SDS011;64245;51.282;22.494;2023-03-05T08:45:22;2.38;;;0.90;;
75649;SDS011;64245;51.282;22.494;2023-03-05T08:47:48;4.45;;;1.00;;
75649;SDS011;64245;51.282;22.494;2023-03-05T08:50:13;3.42;;;0.88;;
75649;SDS011;64245;51.282;22.494;2023-03-05T08:52:39;3.78;;;0.95;;
75649;SDS011;64245;51.282;22.494;2023-03-05T08:55:05;2.63;;;1.15;;
75649;SDS011;64245;51.282;22.494;2023-03-05T08:57:31;2.80;;;1.30;;
75649;SDS011;64245;51.282;22.494;2023-03-05T08:59:56;2.30;;;0.90;;
75649;SDS011;64245;51.282;22.494;2023-03-05T09:02:22;2.60;;;1.05;;
75649;SDS011;64245;51.282;22.494;2023-03-05T09:04:48;3.25;;;0.82;;
75649;SDS011;64245;51.282;22.494;2023-03-05T09:07:13;6.18;;;1.10;;
75649;SDS011;64245;51.282;22.494;2023-03-05T09:09:39;2.25;;;1.38;;
75649;SDS011;64245;51.282;22.494;2023-03-05T09:12:05;2.53;;;1.17;;
75649;SDS011;64245;51.282;22.494;2023-03-05T09:14:31;5.22;;;1.13;;
75649;SDS011;64245;51.282;22.494;2023-03-05T09:16:57;2.55;;;0.75;;
75649;SDS011;64245;51.282;22.494;2023-03-05T09:19:23;7.13;;;1.98;;
75649;SDS011;64245;51.282;22.494;2023-03-05T09:21:49;6.50;;;1.92;;
75649;SDS011;64245;51.282;22.494;2023-03-05T09:24:14;2.80;;;1.25;;
75649;SDS011;64245;51.282;22.494;2023-03-05T09:26:40;2.70;;;0.57;;
75649;SDS011;64245;51.282;22.494;2023-03-05T09:29:07;1.65;;;0.82;;
75649;SDS011;64245;51.282;22.494;2023-03-05T09:31:34;3.72;;;1.27;;
75649;SDS011;64245;51.282;22.494;2023-03-05T09:34:00;2.63;;;1.10;;
75649;SDS011;64245;51.282;22.494;2023-03-05T09:36:27;2.83;;;0.90;;
75649;SDS011;64245;51.282;22.494;2023-03-05T09:38:54;1.73;;;0.88;;
75649;SDS011;64245;51.282;22.494;2023-03-05T09:53:03;2.38;;;0.95;;
75649;SDS011;64245;51.282;22.494;2023-03-05T09:58:06;2.17;;;0.45;;
75649;SDS011;64245;51.282;22.494;2023-03-05T10:03:09;2.13;;;0.75;;
75649;SDS011;64245;51.282;22.494;2023-03-05T10:08:31;2.60;;;1.23;;
75649;SDS011;64245;51.282;22.494;2023-03-05T10:11:05;2.55;;;1.13;;
75649;SDS011;64245;51.282;22.494;2023-03-05T10:13:43;4.85;;;0.95;;
75649;SDS011;64245;51.282;22.494;2023-03-05T10:16:23;1.67;;;0.65;;
75649;SDS011;64245;51.282;22.494;2023-03-05T10:21:48;2.58;;;1.30;;
75649;SDS011;64245;51.282;22.494;2023-03-05T10:24:24;4.28;;;1.23;;
75649;SDS011;64245;51.282;22.494;2023-03-05T10:27:13;1.60;;;0.80;;
75649;SDS011;64245;51.282;22.494;2023-03-05T10:41:15;2.45;;;1.00;;
75649;SDS011;64245;51.282;22.494;2023-03-05T10:46:55;1.63;;;0.60;;
75649;SDS011;64245;51.282;22.494;2023-03-05T10:49:25;1.83;;;1.00;;
75649;SDS011;64245;51.282;22.494;2023-03-05T10:51:57;1.70;;;0.70;;
75649;SDS011;64245;51.282;22.494;2023-03-05T10:59:43;4.28;;;1.08;;
75649;SDS011;64245;51.282;22.494;2023-03-05T11:02:13;1.35;;;0.82;;
75649;SDS011;64245;51.282;22.494;2023-03-05T11:04:39;1.42;;;0.70;;
75649;SDS011;64245;51.282;22.494;2023-03-05T11:09:40;2.28;;;1.25;;
75649;SDS011;64245;51.282;22.494;2023-03-05T11:12:14;0.52;;;0.30;;
75649;SDS011;64245;51.282;22.494;2023-03-05T11:14:46;1.88;;;1.00;;
75649;SDS011;64245;51.282;22.494;2023-03-05T11:17:29;3.83;;;1.40;;
75649;SDS011;64245;51.282;22.494;2023-03-05T11:19:57;4.45;;;1.23;;
75649;SDS011;64245;51.282;22.494;2023-03-05T11:22:49;1.63;;;0.82;;
75649;SDS011;64245;51.282;22.494;2023-03-05T11:28:25;3.53;;;1.30;;
75649;SDS011;64245;51.282;22.494;2023-03-05T11:33:25;3.58;;;1.52;;
75649;SDS011;64245;51.282;22.494;2023-03-05T11:35:51;4.88;;;1.63;;
75649;SDS011;64245;51.282;22.494;2023-03-05T11:38:36;6.35;;;1.85;;
75649;SDS011;64245;51.282;22.494;2023-03-05T11:41:11;4.85;;;2.05;;
75649;SDS011;64245;51.282;22.494;2023-03-05T11:43:37;5.15;;;2.05;;
75649;SDS011;64245;51.282;22.494;2023-03-05T11:46:05;2.88;;;1.33;;
75649;SDS011;64245;51.282;22.494;2023-03-05T11:48:37;6.13;;;1.98;;
75649;SDS011;64245;51.282;22.494;2023-03-05T11:51:12;3.33;;;1.30;;
75649;SDS011;64245;51.282;22.494;2023-03-05T11:53:44;3.47;;;1.20;;
75649;SDS011;64245;51.282;22.494;2023-03-05T11:56:29;3.63;;;1.30;;
75649;SDS011;64245;51.282;22.494;2023-03-05T11:58:59;3.13;;;1.25;;
75649;SDS011;64245;51.282;22.494;2023-03-05T12:01:30;4.03;;;1.60;;
75649;SDS011;64245;51.282;22.494;2023-03-05T12:04:00;3.35;;;1.63;;
75649;SDS011;64245;51.282;22.494;2023-03-05T12:06:36;5.13;;;1.52;;
75649;SDS011;64245;51.282;22.494;2023-03-05T12:09:10;3.35;;;1.65;;
75649;SDS011;64245;51.282;22.494;2023-03-05T12:11:43;3.78;;;1.90;;
75649;SDS011;64245;51.282;22.494;2023-03-05T12:14:22;5.53;;;1.83;;
75649;SDS011;64245;51.282;22.494;2023-03-05T12:17:03;4.53;;;1.83;;
75649;SDS011;64245;51.282;22.494;2023-03-05T12:19:57;4.45;;;1.45;;
75649;SDS011;64245;51.282;22.494;2023-03-05T12:22:32;1.33;;;0.93;;
75649;SDS011;64245;51.282;22.494;2023-03-05T12:27:45;4.85;;;1.20;;
75649;SDS011;64245;51.282;22.494;2023-03-05T12:30:53;2.30;;;1.00;;
75649;SDS011;64245;51.282;22.494;2023-03-05T12:33:45;3.25;;;1.20;;
75649;SDS011;64245;51.282;22.494;2023-03-05T12:38:52;1.08;;;0.47;;
75649;SDS011;64245;51.282;22.494;2023-03-05T12:49:00;3.17;;;1.52;;
75649;SDS011;64245;51.282;22.494;2023-03-05T12:51:54;0.60;;;0.50;;
75649;SDS011;64245;51.282;22.494;2023-03-05T12:54:37;1.25;;;0.60;;
75649;SDS011;64245;51.282;22.494;2023-03-05T12:57:12;3.35;;;1.30;;
75649;SDS011;64245;51.282;22.494;2023-03-05T12:59:44;4.05;;;1.60;;
75649;SDS011;64245;51.282;22.494;2023-03-05T13:02:27;1.85;;;1.23;;
75649;SDS011;64245;51.282;22.494;2023-03-05T13:04:59;2.53;;;1.35;;
75649;SDS011;64245;51.282;22.494;2023-03-05T13:07:30;4.82;;;2.03;;
75649;SDS011;64245;51.282;22.494;2023-03-05T13:09:58;1.67;;;0.88;;
75649;SDS011;64245;51.282;22.494;2023-03-05T13:14:56;3.83;;;1.40;;
75649;SDS011;64245;51.282;22.494;2023-03-05T13:17:32;1.83;;;1.48;;
75649;SDS011;64245;51.282;22.494;2023-03-05T13:20:01;4.07;;;1.35;;
75649;SDS011;64245;51.282;22.494;2023-03-05T13:22:31;3.92;;;1.67;;
75649;SDS011;64245;51.282;22.494;2023-03-05T13:25:15;4.55;;;2.58;;
75649;SDS011;64245;51.282;22.494;2023-03-05T13:27:45;5.97;;;2.30;;
75649;SDS011;64245;51.282;22.494;2023-03-05T13:30:20;4.20;;;1.88;;
75649;SDS011;64245;51.282;22.494;2023-03-05T13:32:59;3.13;;;1.60;;
75649;SDS011;64245;51.282;22.494;2023-03-05T13:35:27;7.68;;;3.03;;
75649;SDS011;64245;51.282;22.494;2023-03-05T13:37:54;8.15;;;2.60;;
75649;SDS011;64245;51.282;22.494;2023-03-05T13:40:30;5.40;;;2.38;;
75649;SDS011;64245;51.282;22.494;2023-03-05T13:43:10;7.25;;;2.28;;
75649;SDS011;64245;51.282;22.494;2023-03-05T13:45:37;8.80;;;2.95;;
75649;SDS011;64245;51.282;22.494;2023-03-05T13:48:05;8.35;;;2.83;;
75649;SDS011;64245;51.282;22.494;2023-03-05T13:50:33;9.80;;;2.80;;
75649;SDS011;64245;51.282;22.494;2023-03-05T13:55:43;6.78;;;2.90;;
75649;SDS011;64245;51.282;22.494;2023-03-05T14:01:28;12.30;;;4.10;;
75649;SDS011;64245;51.282;22.494;2023-03-05T14:03:57;13.73;;;3.90;;
75649;SDS011;64245;51.282;22.494;2023-03-05T14:06:27;11.48;;;4.65;;
75649;SDS011;64245;51.282;22.494;2023-03-05T14:09:05;16.33;;;5.40;;
75649;SDS011;64245;51.282;22.494;2023-03-05T14:11:41;12.68;;;4.72;;
75649;SDS011;64245;51.282;22.494;2023-03-05T14:14:16;14.20;;;5.22;;
75649;SDS011;64245;51.282;22.494;2023-03-05T14:16:42;9.77;;;3.83;;
75649;SDS011;64245;51.282;22.494;2023-03-05T14:19:27;9.32;;;4.18;;
75649;SDS011;64245;51.282;22.494;2023-03-05T14:21:59;9.80;;;4.53;;
75649;SDS011;64245;51.282;22.494;2023-03-05T14:24:25;11.55;;;4.10;;
75649;SDS011;64245;51.282;22.494;2023-03-05T14:26:56;11.68;;;4.10;;
75649;SDS011;64245;51.282;22.494;2023-03-05T14:29:24;10.35;;;4.28;;
75649;SDS011;64245;51.282;22.494;2023-03-05T14:31:59;11.30;;;4.68;;
75649;SDS011;64245;51.282;22.494;2023-03-05T14:34:31;8.38;;;4.05;;
75649;SDS011;64245;51.282;22.494;2023-03-05T14:37:01;8.30;;;3.25;;
75649;SDS011;64245;51.282;22.494;2023-03-05T14:39:42;7.97;;;3.83;;
75649;SDS011;64245;51.282;22.494;2023-03-05T14:45:16;8.57;;;2.80;;
75649;SDS011;64245;51.282;22.494;2023-03-05T14:47:44;6.10;;;3.40;;
75649;SDS011;64245;51.282;22.494;2023-03-05T14:50:18;10.18;;;3.35;;
75649;SDS011;64245;51.282;22.494;2023-03-05T14:52:47;11.85;;;4.75;;
75649;SDS011;64245;51.282;22.494;2023-03-05T14:55:15;9.35;;;4.38;;
75649;SDS011;64245;51.282;22.494;2023-03-05T14:57:42;15.88;;;5.07;;
75649;SDS011;64245;51.282;22.494;2023-03-05T15:00:14;12.20;;;5.00;;
75649;SDS011;64245;51.282;22.494;2023-03-05T15:02:44;9.02;;;3.38;;
75649;SDS011;64245;51.282;22.494;2023-03-05T15:05:09;8.90;;;4.90;;
75649;SDS011;64245;51.282;22.494;2023-03-05T15:07:35;6.00;;;3.38;;
75649;SDS011;64245;51.282;22.494;2023-03-05T15:10:02;12.68;;;4.28;;
75649;SDS011;64245;51.282;22.494;2023-03-05T15:12:28;11.65;;;5.50;;
75649;SDS011;64245;51.282;22.494;2023-03-05T15:14:55;14.60;;;4.60;;
75649;SDS011;64245;51.282;22.494;2023-03-05T15:17:21;12.90;;;5.47;;
75649;SDS011;64245;51.282;22.494;2023-03-05T15:19:51;12.15;;;5.10;;
75649;SDS011;64245;51.282;22.494;2023-03-05T15:22:18;12.88;;;5.22;;
75649;SDS011;64245;51.282;22.494;2023-03-05T15:24:44;15.27;;;5.20;;
75649;SDS011;64245;51.282;22.494;2023-03-05T15:27:09;12.88;;;4.72;;
75649;SDS011;64245;51.282;22.494;2023-03-05T15:29:36;14.15;;;5.78;;
75649;SDS011;64245;51.282;22.494;2023-03-05T15:32:02;5.78;;;2.67;;
75649;SDS011;64245;51.282;22.494;2023-03-05T15:34:29;14.32;;;6.00;;
75649;SDS011;64245;51.282;22.494;2023-03-05T15:36:55;14.43;;;4.88;;
75649;SDS011;64245;51.282;22.494;2023-03-05T15:39:21;11.18;;;5.47;;
75649;SDS011;64245;51.282;22.494;2023-03-05T15:41:51;17.40;;;5.50;;
75649;SDS011;64245;51.282;22.494;2023-03-05T15:44:18;13.77;;;6.47;;
75649;SDS011;64245;51.282;22.494;2023-03-05T15:46:44;14.15;;;6.53;;
75649;SDS011;64245;51.282;22.494;2023-03-05T15:49:10;12.73;;;6.13;;
75649;SDS011;64245;51.282;22.494;2023-03-05T15:51:35;16.75;;;5.63;;
75649;SDS011;64245;51.282;22.494;2023-03-05T15:54:01;17.60;;;6.22;;
75649;SDS011;64245;51.282;22.494;2023-03-05T15:56:27;14.60;;;5.80;;
75649;SDS011;64245;51.282;22.494;2023-03-05T15:58:52;9.68;;;4.43;;
75649;SDS011;64245;51.282;22.494;2023-03-05T16:01:18;15.88;;;6.55;;